createdAt,value
2023-02-19T00:02:37.103Z,3.17
2023-02-19T00:06:11.417Z,3.22
2023-02-19T00:09:43.418Z,2.47
2023-02-19T00:13:15.461Z,2.80
2023-02-19T00:16:48.210Z,2.97
2023-02-19T00:20:20.518Z,3.40
2023-02-19T00:23:54.024Z,3.08
2023-02-19T00:27:26.323Z,2.63
2023-02-19T00:31:15.184Z,2.65
2023-02-19T00:34:47.678Z,1.88
2023-02-19T00:38:19.817Z,2.37
2023-02-19T00:41:51.558Z,3.95
2023-02-19T00:45:23.813Z,2.38
2023-02-19T00:48:56.487Z,2.40
2023-02-19T00:52:28.605Z,3.10
2023-02-19T00:56:00.361Z,2.83
2023-02-19T00:59:32.485Z,2.97
2023-02-19T01:03:04.311Z,1.73
2023-02-19T01:06:36.820Z,2.33
2023-02-19T01:10:08.912Z,2.88
2023-02-19T01:13:42.744Z,1.97
2023-02-19T01:17:14.478Z,1.67
2023-02-19T01:20:46.730Z,2.15
2023-02-19T01:24:18.526Z,2.13
2023-02-19T01:27:50.593Z,2.00
2023-02-19T01:31:24.507Z,2.20
2023-02-19T01:34:56.594Z,2.38
2023-02-19T01:38:28.372Z,2.73
2023-02-19T01:42:00.347Z,3.33
2023-02-19T01:45:39.169Z,3.60
2023-02-19T01:49:14.831Z,2.83
2023-02-19T01:52:46.947Z,3.03
2023-02-19T01:56:21.112Z,2.72
2023-02-19T01:59:57.020Z,1.75
2023-02-19T02:03:29.964Z,2.53
2023-02-19T02:07:24.186Z,3.35
2023-02-19T02:10:57.601Z,3.42
2023-02-19T02:14:32.778Z,3.17
2023-02-19T02:18:34.182Z,3.25
2023-02-19T02:22:19.695Z,3.42
2023-02-19T02:25:58.048Z,3.23
2023-02-19T02:29:35.510Z,3.20
2023-02-19T02:33:26.512Z,3.25
2023-02-19T02:36:59.553Z,3.85
2023-02-19T02:40:31.738Z,3.73
2023-02-19T02:44:03.504Z,2.63
2023-02-19T02:47:42.073Z,4.05
2023-02-19T02:51:25.016Z,3.40
2023-02-19T02:55:03.259Z,3.35
2023-02-19T02:58:35.581Z,4.07
2023-02-19T03:02:22.786Z,3.40
2023-02-19T03:06:00.895Z,3.63
2023-02-19T03:09:40.861Z,3.05
2023-02-19T03:14:00.592Z,3.30
2023-02-19T03:18:03.320Z,4.43
2023-02-19T03:21:38.700Z,3.72
2023-02-19T03:25:33.330Z,3.38
2023-02-19T03:29:26.213Z,3.17
2023-02-19T03:33:08.349Z,3.53
2023-02-19T03:37:03.175Z,3.88
2023-02-19T03:40:54.557Z,4.47
2023-02-19T03:44:53.562Z,2.95
2023-02-19T03:48:41.045Z,4.55
2023-02-19T03:52:21.412Z,4.80
2023-02-19T03:55:56.322Z,4.63
2023-02-19T03:59:40.270Z,5.28
2023-02-19T04:03:41.689Z,4.30
2023-02-19T04:07:13.825Z,3.73
2023-02-19T04:10:47.310Z,5.13
2023-02-19T04:14:22.880Z,5.43
2023-02-19T04:17:58.846Z,4.57
2023-02-19T04:21:33.032Z,4.45
2023-02-19T04:25:05.818Z,3.60
2023-02-19T04:28:38.218Z,4.70
2023-02-19T04:32:11.642Z,5.43
2023-02-19T04:35:43.379Z,4.60
2023-02-19T04:39:15.499Z,4.85
2023-02-19T04:42:47.949Z,4.80
2023-02-19T04:46:20.612Z,4.72
2023-02-19T04:49:52.351Z,3.70
2023-02-19T04:53:24.718Z,5.03
2023-02-19T04:56:57.628Z,4.22
2023-02-19T05:00:30.246Z,3.17
2023-02-19T05:04:01.981Z,4.53
2023-02-19T05:07:34.093Z,4.10
2023-02-19T05:11:08.101Z,3.20
2023-02-19T05:14:40.199Z,3.88
2023-02-19T05:18:12.068Z,3.03
2023-02-19T05:21:44.457Z,4.40
2023-02-19T05:25:18.677Z,3.97
2023-02-19T05:28:53.157Z,5.80
2023-02-19T05:32:25.281Z,4.25
2023-02-19T05:35:57.806Z,5.00
2023-02-19T05:39:29.626Z,3.22
2023-02-19T05:43:01.622Z,4.27
2023-02-19T05:46:33.449Z,5.43
2023-02-19T05:50:06.054Z,4.40
2023-02-19T05:53:38.444Z,4.50
2023-02-19T05:57:10.551Z,5.32
2023-02-19T06:00:42.276Z,4.90
2023-02-19T06:04:15.507Z,5.23
2023-02-19T06:07:47.362Z,5.32
2023-02-19T06:11:19.968Z,5.07
2023-02-19T06:14:52.483Z,4.05
2023-02-19T06:18:24.631Z,4.70
2023-02-19T06:21:56.350Z,4.10
2023-02-19T06:25:28.357Z,3.45
2023-02-19T06:29:00.210Z,4.80
2023-02-19T06:32:32.710Z,2.42
2023-02-19T06:36:04.749Z,4.63
2023-02-19T06:39:37.382Z,3.50
2023-02-19T06:43:09.225Z,4.90
2023-02-19T06:46:41.290Z,4.10
2023-02-19T06:50:13.457Z,4.22
2023-02-19T06:53:46.409Z,4.63
2023-02-19T06:57:19.000Z,3.80
2023-02-19T07:00:51.058Z,3.67
2023-02-19T07:04:22.921Z,5.87
2023-02-19T07:07:54.952Z,5.25
2023-02-19T07:11:30.750Z,4.82
2023-02-19T07:15:02.766Z,3.40
2023-02-19T07:18:35.166Z,3.22
2023-02-19T07:22:07.456Z,5.35
2023-02-19T07:25:39.530Z,4.57
2023-02-19T07:29:11.687Z,4.90
2023-02-19T07:32:45.444Z,4.30
2023-02-19T07:36:18.752Z,4.40
2023-02-19T07:39:50.814Z,3.33
2023-02-19T07:43:24.310Z,5.00
2023-02-19T07:46:56.469Z,3.65
2023-02-19T07:50:28.621Z,3.50
2023-02-19T07:54:00.572Z,3.65
2023-02-19T07:57:32.643Z,4.07
2023-02-19T08:01:52.205Z,3.78
2023-02-19T08:05:25.232Z,4.23
2023-02-19T08:08:57.919Z,4.07
2023-02-19T08:12:48.698Z,4.40
2023-02-19T08:16:36.906Z,3.70
2023-02-19T08:20:14.544Z,2.13
2023-02-19T08:23:46.535Z,3.78
2023-02-19T08:27:20.100Z,3.07
2023-02-19T08:30:52.642Z,1.50
2023-02-19T08:34:24.722Z,2.65
2023-02-19T08:37:58.904Z,2.17
2023-02-19T08:41:31.064Z,2.63
2023-02-19T08:45:02.894Z,2.60
2023-02-19T08:48:34.973Z,2.75
2023-02-19T08:52:06.857Z,3.57
2023-02-19T08:55:39.388Z,2.72
2023-02-19T08:59:11.135Z,2.47
2023-02-19T09:02:43.779Z,2.27
2023-02-19T09:06:18.236Z,2.03
2023-02-19T09:09:50.637Z,1.95
2023-02-19T09:13:22.507Z,3.00
2023-02-19T09:16:54.538Z,2.10
2023-02-19T09:20:28.097Z,1.90
2023-02-19T09:24:00.342Z,2.20
2023-02-19T09:27:32.458Z,2.00
2023-02-19T09:31:11.173Z,1.67
2023-02-19T09:34:43.218Z,0.70
2023-02-19T09:38:15.290Z,1.50
2023-02-19T09:41:57.612Z,1.77
2023-02-19T09:45:29.886Z,1.38
2023-02-19T09:49:28.011Z,1.60
2023-02-19T09:53:04.036Z,1.83
2023-02-19T09:56:37.810Z,0.80
2023-02-19T10:00:22.368Z,1.65
2023-02-19T10:03:54.516Z,1.73
2023-02-19T10:07:37.508Z,2.00
2023-02-19T10:11:13.311Z,1.13
2023-02-19T10:14:50.157Z,1.13
2023-02-19T10:18:30.907Z,1.33
2023-02-19T10:22:04.269Z,1.25
2023-02-19T10:25:39.177Z,1.05
2023-02-19T10:29:11.556Z,1.20
2023-02-19T10:33:08.668Z,1.00
2023-02-19T10:36:44.922Z,1.33
2023-02-19T10:40:24.735Z,1.17
2023-02-19T10:44:07.748Z,0.85
2023-02-19T10:47:47.000Z,0.80
2023-02-19T10:51:23.034Z,1.03
2023-02-19T10:55:15.727Z,0.77
2023-02-19T10:58:48.024Z,0.70
2023-02-19T11:02:21.851Z,0.52
2023-02-19T11:06:06.896Z,0.80
2023-02-19T11:09:41.833Z,1.48
2023-02-19T11:13:17.910Z,0.98
2023-02-19T11:16:56.655Z,1.47
2023-02-19T11:20:29.122Z,1.02
2023-02-19T11:24:03.759Z,1.48
2023-02-19T11:27:36.617Z,1.10
2023-02-19T11:31:20.713Z,0.77
2023-02-19T11:35:13.015Z,0.90
2023-02-19T11:38:44.983Z,0.65
2023-02-19T11:42:53.728Z,0.90
2023-02-19T11:46:49.058Z,0.90
2023-02-19T11:50:26.886Z,0.80
2023-02-19T11:54:12.310Z,0.80
2023-02-19T11:57:50.125Z,0.63
2023-02-19T12:01:46.366Z,0.55
2023-02-19T12:05:47.507Z,0.60
2023-02-19T12:09:37.773Z,0.57
2023-02-19T12:13:34.778Z,0.82
2023-02-19T12:17:43.643Z,0.63
2023-02-19T12:21:33.531Z,0.67
2023-02-19T12:25:37.928Z,1.02
2023-02-19T12:29:18.602Z,0.57
2023-02-19T12:33:12.561Z,1.20
2023-02-19T12:37:09.988Z,1.00
2023-02-19T12:41:10.527Z,0.60
2023-02-19T12:44:51.356Z,0.83
2023-02-19T12:48:44.589Z,0.70
2023-02-19T12:52:22.165Z,0.95
2023-02-19T12:55:54.998Z,0.57
2023-02-19T12:59:43.882Z,0.50
2023-02-19T13:03:39.231Z,0.75
2023-02-19T13:07:26.219Z,0.77
2023-02-19T13:11:09.508Z,0.60
2023-02-19T13:15:14.039Z,0.60
2023-02-19T13:18:50.481Z,0.60
2023-02-19T13:23:08.834Z,0.40
2023-02-19T13:27:00.491Z,0.50
2023-02-19T13:30:41.490Z,0.70
2023-02-19T13:34:38.975Z,1.13
2023-02-19T13:38:13.275Z,0.60
2023-02-19T13:41:53.710Z,0.70
2023-02-19T13:45:47.492Z,0.63
2023-02-19T13:49:28.517Z,0.60
2023-02-19T13:53:02.195Z,0.50
2023-02-19T13:56:34.234Z,0.55
2023-02-19T14:00:45.046Z,0.47
2023-02-19T14:04:22.867Z,0.40
2023-02-19T14:07:55.865Z,0.52
2023-02-19T14:11:43.063Z,0.50
2023-02-19T14:15:42.977Z,0.50
2023-02-19T14:19:50.311Z,0.50
2023-02-19T14:23:25.245Z,0.50
2023-02-19T14:26:57.741Z,0.60
2023-02-19T14:30:30.453Z,0.60
2023-02-19T14:34:26.358Z,0.63
2023-02-19T14:37:58.855Z,0.50
2023-02-19T14:41:33.837Z,0.53
2023-02-19T14:45:07.754Z,0.77
2023-02-19T14:48:45.801Z,1.02
2023-02-19T14:52:25.926Z,0.83
2023-02-19T14:56:00.132Z,0.47
2023-02-19T14:59:31.852Z,0.90
2023-02-19T15:03:05.250Z,0.23
2023-02-19T15:06:37.153Z,0.50
2023-02-19T15:10:11.091Z,1.05
2023-02-19T15:13:45.753Z,0.55
2023-02-19T15:17:30.412Z,0.53
2023-02-19T15:21:05.948Z,0.47
2023-02-19T15:24:46.495Z,0.20
2023-02-19T15:28:25.915Z,1.23
2023-02-19T15:32:00.644Z,0.65
2023-02-19T15:35:33.433Z,0.98
2023-02-19T15:39:05.699Z,0.50
2023-02-19T15:42:38.329Z,0.60
2023-02-19T15:46:17.949Z,0.90
2023-02-19T15:50:01.192Z,0.45
2023-02-19T15:53:38.352Z,3.37
2023-02-19T15:57:18.296Z,1.00
2023-02-19T16:00:55.670Z,0.88
2023-02-19T16:04:27.733Z,0.97
2023-02-19T16:08:12.094Z,0.73
2023-02-19T16:11:53.461Z,1.85
2023-02-19T16:15:31.310Z,0.90
2023-02-19T16:19:03.165Z,0.98
2023-02-19T16:22:42.272Z,0.80
2023-02-19T16:26:14.609Z,0.80
2023-02-19T16:29:51.009Z,0.30
2023-02-19T16:33:36.533Z,0.85
2023-02-19T16:37:33.371Z,0.90
2023-02-19T16:41:12.357Z,0.70
2023-02-19T16:44:45.160Z,0.70
2023-02-19T16:48:19.426Z,0.50
2023-02-19T16:51:51.537Z,0.53
2023-02-19T16:55:24.389Z,0.40
2023-02-19T16:58:56.331Z,0.75
2023-02-19T17:02:28.519Z,0.63
2023-02-19T17:06:01.635Z,1.00
2023-02-19T17:09:33.851Z,0.80
2023-02-19T17:13:05.805Z,0.47
2023-02-19T17:16:40.415Z,0.77
2023-02-19T17:20:23.085Z,0.70
2023-02-19T17:23:56.862Z,0.60
2023-02-19T17:27:30.818Z,0.80
2023-02-19T17:31:03.136Z,0.90
2023-02-19T17:34:36.272Z,1.05
2023-02-19T17:38:13.503Z,0.60
2023-02-19T17:41:45.223Z,0.60
2023-02-19T17:45:17.437Z,1.00
2023-02-19T17:48:49.733Z,0.45
2023-02-19T17:52:22.132Z,0.90
2023-02-19T17:55:53.931Z,0.93
2023-02-19T17:59:25.972Z,0.85
2023-02-19T18:02:58.130Z,0.90
2023-02-19T18:06:30.548Z,0.70
2023-02-19T18:10:03.745Z,0.75
2023-02-19T18:13:35.825Z,0.50
2023-02-19T18:17:07.600Z,1.80
2023-02-19T18:20:39.689Z,1.13
2023-02-19T18:24:11.475Z,0.85
2023-02-19T18:27:43.742Z,0.50
2023-02-19T18:31:16.187Z,0.50
2023-02-19T18:34:53.515Z,0.50
2023-02-19T18:38:25.339Z,0.50
2023-02-19T18:41:58.346Z,0.70
2023-02-19T18:45:35.184Z,1.02
2023-02-19T18:49:07.345Z,1.48
2023-02-19T18:52:39.378Z,0.70
2023-02-19T18:56:11.555Z,1.50
2023-02-19T18:59:48.960Z,0.95
2023-02-19T19:03:21.177Z,0.80
2023-02-19T19:06:52.900Z,1.00
2023-02-19T19:10:26.359Z,1.08
2023-02-19T19:13:58.390Z,1.03
2023-02-19T19:17:30.494Z,0.77
2023-02-19T19:21:03.769Z,1.50
2023-02-19T19:24:36.449Z,2.08
2023-02-19T19:28:08.384Z,1.10
2023-02-19T19:31:41.061Z,1.63
2023-02-19T19:35:13.325Z,1.20
2023-02-19T19:38:48.028Z,1.20
2023-02-19T19:42:19.993Z,0.77
2023-02-19T19:45:52.362Z,0.70
2023-02-19T19:49:24.306Z,0.60
2023-02-19T19:52:56.532Z,0.80
2023-02-19T19:56:28.895Z,1.42
2023-02-19T20:00:01.103Z,1.23
2023-02-19T20:03:34.981Z,1.53
2023-02-19T20:07:08.102Z,1.35
2023-02-19T20:10:43.450Z,2.15
2023-02-19T20:14:19.207Z,1.27
2023-02-19T20:17:53.458Z,1.60
2023-02-19T20:21:29.048Z,1.63
2023-02-19T20:25:01.978Z,1.00
2023-02-19T20:28:50.329Z,1.02
2023-02-19T20:32:23.182Z,1.40
2023-02-19T20:35:56.975Z,1.17
2023-02-19T20:39:29.935Z,1.60
2023-02-19T20:43:03.127Z,1.27
2023-02-19T20:46:41.630Z,0.60
2023-02-19T20:50:17.474Z,1.17
2023-02-19T20:53:49.677Z,0.73
2023-02-19T20:57:23.102Z,1.52
2023-02-19T21:00:56.165Z,1.03
2023-02-19T21:04:29.970Z,1.05
2023-02-19T21:08:04.270Z,0.60
2023-02-19T21:11:36.507Z,0.98
2023-02-19T21:15:10.292Z,0.70
2023-02-19T21:18:42.717Z,1.45
2023-02-19T21:22:14.764Z,0.70
2023-02-19T21:25:49.162Z,0.90
2023-02-19T21:29:22.137Z,1.05
2023-02-19T21:32:54.436Z,0.40
2023-02-19T21:36:26.441Z,0.50
2023-02-19T21:40:00.473Z,0.50
2023-02-19T21:43:32.675Z,0.50
2023-02-19T21:47:04.635Z,0.60
2023-02-19T21:50:36.817Z,0.77
2023-02-19T21:54:15.465Z,0.82
2023-02-19T21:57:47.738Z,0.60
2023-02-19T22:01:31.678Z,0.43
2023-02-19T22:05:03.584Z,0.70
2023-02-19T22:08:35.921Z,1.38
2023-02-19T22:12:07.840Z,0.90
2023-02-19T22:15:39.817Z,0.70
2023-02-19T22:19:12.807Z,0.70
2023-02-19T22:22:44.992Z,0.55
2023-02-19T22:26:18.760Z,0.47
2023-02-19T22:29:50.871Z,0.50
2023-02-19T22:33:23.496Z,0.50
2023-02-19T22:36:55.207Z,0.27
2023-02-19T22:40:27.322Z,0.40
2023-02-19T22:44:00.359Z,0.40
2023-02-19T22:47:32.468Z,0.50
2023-02-19T22:51:04.423Z,0.70
2023-02-19T22:54:36.764Z,0.60
2023-02-19T22:58:08.915Z,0.77
2023-02-19T23:01:41.440Z,0.70
2023-02-19T23:05:13.418Z,0.50
2023-02-19T23:08:45.220Z,0.60
2023-02-19T23:12:17.229Z,0.70
2023-02-19T23:15:49.317Z,0.57
2023-02-19T23:19:21.375Z,0.95
2023-02-19T23:22:53.486Z,0.20
2023-02-19T23:26:26.008Z,0.65
2023-02-19T23:29:58.352Z,1.00
2023-02-19T23:33:30.177Z,0.80
2023-02-19T23:37:02.516Z,0.27
2023-02-19T23:40:34.613Z,0.40
2023-02-19T23:44:06.360Z,0.30
2023-02-19T23:47:38.338Z,0.70
2023-02-19T23:51:10.268Z,0.60
2023-02-19T23:54:42.276Z,0.57
2023-02-19T23:58:14.673Z,0.70
